Time;durP1;ratioP1;P1;durP2;ratioP2;P2;SDS_P1;SDS_P2;PMS_P1;PMS_P2;Temp;Humidity;BMP_temperature;BMP_pressure;BME280_temperature;BME280_humidity;BME280_pressure;Samples;Min_cycle;Max_cycle;Signal;HPM_P1;HPM_P2
2021/11/20 00:02:09;;;;;;;;;;;10.70;99.90;;;;;;5066624;28;19968;-77
2021/11/20 00:04:38;;;;;;;;;;;10.70;99.90;;;;;;5071183;28;19924;-77
2021/11/20 00:07:05;;;;;;;;;;;10.70;99.90;;;;;;5068597;28;19932;-77
2021/11/20 00:09:32;;;;;;;;;;;10.70;99.90;;;;;;5069802;28;20460;-77
2021/11/20 00:12:01;;;;;;;;;;;10.70;99.90;;;;;;5069376;28;20375;-77
2021/11/20 00:14:28;;;;;;;;;;;10.70;99.90;;;;;;5070027;28;19928;-78
2021/11/20 00:16:56;;;;;;;;;;;10.70;99.90;;;;;;5066465;28;19928;-76
2021/11/20 00:19:24;;;;;;;;;;;10.70;99.90;;;;;;5069527;28;19925;-77
2021/11/20 00:21:53;;;;;;;;;;;10.70;99.90;;;;;;5064990;28;19925;-77
2021/11/20 00:24:23;;;;;;;;;;;10.60;99.90;;;;;;5065688;28;19971;-80
2021/11/20 00:26:49;;;;;;;;;;;10.60;99.90;;;;;;5068545;28;19928;-78
2021/11/20 00:29:21;;;;;;;;;;;10.60;99.90;;;;;;5069041;28;20035;-77
2021/11/20 00:31:49;;;;;;;;;;;10.60;99.90;;;;;;5069632;28;19924;-77
2021/11/20 00:34:19;;;;;;;;;;;10.60;99.90;;;;;;5069610;28;20385;-76
2021/11/20 00:36:46;;;;;;;;;;;10.60;99.90;;;;;;5063930;28;19932;-76
2021/11/20 00:39:16;;;;;;;;;;;10.60;99.90;;;;;;5070464;28;19931;-76
2021/11/20 00:41:43;;;;;;;;;;;10.60;99.90;;;;;;5065478;28;19932;-76
2021/11/20 00:44:09;;;;;;;;;;;10.60;99.90;;;;;;5067956;28;19924;-76
2021/11/20 00:46:36;;;;;;;;;;;10.50;99.90;;;;;;5065603;28;19931;-75
2021/11/20 00:49:04;;;;;;;;;;;10.60;99.90;;;;;;5070503;28;20007;-76
2021/11/20 00:51:31;;;;;;;;;;;10.60;99.90;;;;;;5066027;28;19925;-75
2021/11/20 00:53:58;;;;;;;;;;;10.50;99.90;;;;;;5067331;28;19931;-76
2021/11/20 00:56:27;;;;;;;;;;;10.50;99.90;;;;;;5067621;28;19966;-75
2021/11/20 00:58:54;;;;;;;;;;;10.50;99.90;;;;;;5064901;28;19932;-74
2021/11/20 01:01:22;;;;;;;;;;;10.50;99.90;;;;;;5066610;28;19938;-75
2021/11/20 01:03:49;;;;;;;;;;;10.50;99.90;;;;;;5067865;28;19925;-76
2021/11/20 01:06:16;;;;;;;;;;;10.50;99.90;;;;;;5069045;28;20306;-77
2021/11/20 01:08:45;;;;;;;;;;;10.50;99.90;;;;;;5070685;28;20041;-77
2021/11/20 01:11:17;;;;;;;;;;;10.50;99.90;;;;;;5069158;28;19929;-76
2021/11/20 01:13:46;;;;;;;;;;;10.50;99.90;;;;;;5065732;28;19931;-77
2021/11/20 01:16:14;;;;;;;;;;;10.50;99.90;;;;;;5068557;28;19925;-74
2021/11/20 01:18:41;;;;;;;;;;;10.50;99.90;;;;;;5066038;28;20334;-76
2021/11/20 01:21:08;;;;;;;;;;;10.50;99.90;;;;;;5069282;28;19930;-74
2021/11/20 01:23:35;;;;;;;;;;;10.50;99.90;;;;;;5065718;28;19924;-74
2021/11/20 01:26:02;;;;;;;;;;;10.50;99.90;;;;;;5065693;28;19983;-74
2021/11/20 01:28:33;;;;;;;;;;;10.50;99.90;;;;;;5066038;28;20506;-75
2021/11/20 01:31:01;;;;;;;;;;;10.50;99.90;;;;;;5065894;28;19979;-74
2021/11/20 01:33:28;;;;;;;;;;;10.50;99.90;;;;;;5065701;28;19928;-74
2021/11/20 01:35:55;;;;;;;;;;;10.50;99.90;;;;;;5066776;28;19933;-75
2021/11/20 01:38:21;;;;;;;;;;;10.50;99.90;;;;;;5067286;28;19930;-75
2021/11/20 01:40:48;;;;;;;;;;;10.50;99.90;;;;;;5063427;28;20294;-75
2021/11/20 01:43:15;;;;;;;;;;;10.50;99.90;;;;;;5067084;28;19924;-76
2021/11/20 01:45:47;;;;;;;;;;;10.50;99.90;;;;;;5065162;28;19925;-77
2021/11/20 01:48:32;;;;;;;;;;;10.50;99.90;;;;;;5063746;28;19924;-75
2021/11/20 01:51:02;;;;;;;;;;;10.50;99.90;;;;;;5061639;28;19924;-76
2021/11/20 01:53:32;;;;;;;;;;;10.50;99.90;;;;;;5067705;28;20295;-75
2021/11/20 01:56:01;;;;;;;;;;;10.50;99.90;;;;;;5062582;28;19924;-77
2021/11/20 01:58:30;;;;;;;;;;;10.40;99.90;;;;;;5066026;28;19924;-77
2021/11/20 02:01:00;;;;;;;;;;;10.50;99.90;;;;;;5060220;28;19967;-76
2021/11/20 02:03:29;;;;;;;;;;;10.50;99.90;;;;;;5065607;28;20019;-76
2021/11/20 02:05:59;;;;;;;;;;;10.50;99.90;;;;;;5064407;28;19939;-77
2021/11/20 02:08:32;;;;;;;;;;;10.50;99.90;;;;;;5066043;28;19924;-77
2021/11/20 02:11:00;;;;;;;;;;;10.50;99.90;;;;;;5063731;28;20437;-76
2021/11/20 02:13:28;;;;;;;;;;;10.50;99.90;;;;;;5063973;28;19933;-77
2021/11/20 02:15:58;;;;;;;;;;;10.40;99.90;;;;;;5066010;28;19932;-76
2021/11/20 02:18:26;;;;;;;;;;;10.40;99.90;;;;;;5060049;28;19970;-78
2021/11/20 02:20:55;;;;;;;;;;;10.50;99.90;;;;;;5061297;28;20015;-77
2021/11/20 02:23:22;;;;;;;;;;;10.40;99.90;;;;;;5070922;28;19924;-76
2021/11/20 02:25:49;;;;;;;;;;;10.40;99.90;;;;;;5071197;28;19924;-76
2021/11/20 02:28:17;;;;;;;;;;;10.50;99.90;;;;;;5071637;28;19925;-76
2021/11/20 02:30:46;;;;;;;;;;;10.40;99.90;;;;;;5072733;28;20405;-76
2021/11/20 02:33:14;;;;;;;;;;;10.40;99.90;;;;;;5072239;28;19931;-76
2021/11/20 02:35:42;;;;;;;;;;;10.40;99.90;;;;;;5074954;28;19925;-77
2021/11/20 02:38:11;;;;;;;;;;;10.40;99.90;;;;;;5070314;28;20017;-78
2021/11/20 02:40:37;;;;;;;;;;;10.40;99.90;;;;;;5070472;28;19924;-78
2021/11/20 02:43:05;;;;;;;;;;;10.40;99.90;;;;;;5068002;28;19924;-76
2021/11/20 02:45:33;;;;;;;;;;;10.40;99.90;;;;;;5068919;28;19924;-77
2021/11/20 02:48:01;;;;;;;;;;;10.40;99.90;;;;;;5072228;28;20409;-76
2021/11/20 02:50:30;;;;;;;;;;;10.40;99.90;;;;;;5072605;28;20463;-76
2021/11/20 02:52:57;;;;;;;;;;;10.40;99.90;;;;;;5070916;28;19924;-76
2021/11/20 02:55:23;;;;;;;;;;;10.40;99.90;;;;;;5070873;28;20015;-76
2021/11/20 02:57:50;;;;;;;;;;;10.40;99.90;;;;;;5070422;28;19924;-76
2021/11/20 03:00:18;;;;;;;;;;;10.40;99.90;;;;;;5074030;28;19925;-76
2021/11/20 03:02:46;;;;;;;;;;;10.40;99.90;;;;;;5068663;28;19932;-76
2021/11/20 03:05:15;;;;;;;;;;;10.30;99.90;;;;;;5070553;28;19931;-75
2021/11/20 03:07:42;;;;;;;;;;;10.40;99.90;;;;;;5071487;28;19929;-77
2021/11/20 03:10:09;;;;;;;;;;;10.40;99.90;;;;;;5069627;28;19925;-75
2021/11/20 03:12:36;;;;;;;;;;;10.40;99.90;;;;;;5069391;28;19928;-75
2021/11/20 03:15:04;;;;;;;;;;;10.40;99.90;;;;;;5068869;28;19939;-76
2021/11/20 03:17:31;;;;;;;;;;;10.40;99.90;;;;;;5071202;28;19925;-77
2021/11/20 03:19:58;;;;;;;;;;;10.40;99.90;;;;;;5072002;28;19933;-79
2021/11/20 03:22:27;;;;;;;;;;;10.40;99.90;;;;;;5069809;28;19946;-77
2021/11/20 03:24:54;;;;;;;;;;;10.40;99.90;;;;;;5072770;28;20045;-76
2021/11/20 03:27:21;;;;;;;;;;;10.40;99.90;;;;;;5071367;28;19924;-75
2021/11/20 03:29:48;;;;;;;;;;;10.40;99.90;;;;;;5071117;28;19932;-76
2021/11/20 03:32:15;;;;;;;;;;;10.40;99.90;;;;;;5070998;28;20024;-76
2021/11/20 03:34:42;;;;;;;;;;;10.30;99.90;;;;;;5067351;28;19955;-78
2021/11/20 03:37:09;;;;;;;;;;;10.30;99.90;;;;;;5067461;28;19925;-75
2021/11/20 03:39:38;;;;;;;;;;;10.30;99.90;;;;;;5067792;28;19928;-77
2021/11/20 03:42:05;;;;;;;;;;;10.40;99.90;;;;;;5067866;28;19924;-75
2021/11/20 03:44:32;;;;;;;;;;;10.40;99.90;;;;;;5070568;28;19933;-75
2021/11/20 03:46:59;;;;;;;;;;;10.30;99.90;;;;;;5067536;28;19933;-76
2021/11/20 03:49:26;;;;;;;;;;;10.40;99.90;;;;;;5072161;28;19946;-76
2021/11/20 03:51:52;;;;;;;;;;;10.40;99.90;;;;;;5068162;28;19924;-76
2021/11/20 03:54:19;;;;;;;;;;;10.40;99.90;;;;;;5067252;28;19930;-75
2021/11/20 03:56:47;;;;;;;;;;;10.30;99.90;;;;;;5068402;28;19925;-76
2021/11/20 03:59:14;;;;;;;;;;;10.30;99.90;;;;;;5070018;28;19928;-75
2021/11/20 04:01:40;;;;;;;;;;;10.30;99.90;;;;;;5067288;28;20260;-75
2021/11/20 04:04:07;;;;;;;;;;;10.30;99.90;;;;;;5068196;28;20306;-75
2021/11/20 04:06:34;;;;;;;;;;;10.30;99.90;;;;;;5066882;28;19942;-76
2021/11/20 04:09:00;;;;;;;;;;;10.30;99.90;;;;;;5070823;28;19924;-76
2021/11/20 04:11:28;;;;;;;;;;;10.30;99.90;;;;;;5068996;28;20039;-76
2021/11/20 04:13:57;;;;;;;;;;;10.30;99.90;;;;;;5068982;28;19942;-76
2021/11/20 04:16:25;;;;;;;;;;;10.30;99.90;;;;;;5068131;28;20405;-78
2021/11/20 04:18:52;;;;;;;;;;;10.30;99.90;;;;;;5070361;28;19930;-78
2021/11/20 04:21:19;;;;;;;;;;;10.30;99.90;;;;;;5070019;28;19931;-79
2021/11/20 04:23:46;;;;;;;;;;;10.30;99.90;;;;;;5072132;28;19924;-77
2021/11/20 04:26:13;;;;;;;;;;;10.30;99.90;;;;;;5066865;28;20018;-75
2021/11/20 04:28:40;;;;;;;;;;;10.30;99.90;;;;;;5067718;28;20707;-76
2021/11/20 04:31:08;;;;;;;;;;;10.30;99.90;;;;;;5069032;28;20003;-76
2021/11/20 04:33:35;;;;;;;;;;;10.30;99.90;;;;;;5064812;28;19925;-76
2021/11/20 04:36:02;;;;;;;;;;;10.30;99.90;;;;;;5064314;28;19935;-75
2021/11/20 04:38:28;;;;;;;;;;;10.30;99.90;;;;;;5068264;28;19978;-77
2021/11/20 04:40:55;;;;;;;;;;;10.30;99.90;;;;;;5069534;28;20287;-77
2021/11/20 04:43:22;;;;;;;;;;;10.30;99.90;;;;;;5062069;28;19939;-77
2021/11/20 04:45:49;;;;;;;;;;;10.30;99.90;;;;;;5065327;28;19934;-78
2021/11/20 04:48:17;;;;;;;;;;;10.30;99.90;;;;;;5064549;28;19936;-78
2021/11/20 04:50:43;;;;;;;;;;;10.30;99.90;;;;;;5069820;28;20007;-79
2021/11/20 04:53:10;;;;;;;;;;;10.30;99.90;;;;;;5067869;28;19943;-76
2021/11/20 04:55:37;;;;;;;;;;;10.30;99.90;;;;;;5062633;28;19925;-76
2021/11/20 04:58:03;;;;;;;;;;;10.30;99.90;;;;;;5062911;28;19932;-78
2021/11/20 05:00:32;;;;;;;;;;;10.30;99.90;;;;;;5062629;28;20038;-78
2021/11/20 05:02:59;;;;;;;;;;;10.30;99.90;;;;;;5067297;28;19929;-78
2021/11/20 05:05:27;;;;;;;;;;;10.30;99.90;;;;;;5066936;28;19931;-77
2021/11/20 05:07:55;;;;;;;;;;;10.30;99.90;;;;;;5068196;28;19997;-77
2021/11/20 05:10:21;;;;;;;;;;;10.30;99.90;;;;;;5067533;28;19925;-76
2021/11/20 05:12:48;;;;;;;;;;;10.30;99.90;;;;;;5064340;28;19924;-77
2021/11/20 05:15:16;;;;;;;;;;;10.30;99.90;;;;;;5067596;28;19924;-76
2021/11/20 05:17:43;;;;;;;;;;;10.30;99.90;;;;;;5065662;28;19928;-78
2021/11/20 05:20:10;;;;;;;;;;;10.30;99.90;;;;;;5068880;28;19932;-77
2021/11/20 05:22:38;;;;;;;;;;;10.30;99.90;;;;;;5065129;28;20295;-79
2021/11/20 05:25:06;;;;;;;;;;;10.30;99.90;;;;;;5068463;28;19974;-80
2021/11/20 05:27:32;;;;;;;;;;;10.30;99.90;;;;;;5061936;28;20031;-76
2021/11/20 05:30:04;;;;;;;;;;;10.30;99.90;;;;;;5068645;28;20011;-76
2021/11/20 05:32:31;;;;;;;;;;;10.30;99.90;;;;;;5066026;28;19925;-75
2021/11/20 05:34:58;;;;;;;;;;;10.30;99.90;;;;;;5067155;28;19925;-76
2021/11/20 05:37:25;;;;;;;;;;;10.20;99.90;;;;;;5062819;28;19932;-76
2021/11/20 05:39:53;;;;;;;;;;;10.20;99.90;;;;;;5064145;28;19932;-75
2021/11/20 05:42:20;;;;;;;;;;;10.20;99.90;;;;;;5065963;28;19931;-75
2021/11/20 05:44:47;;;;;;;;;;;10.30;99.90;;;;;;5068441;28;19931;-77
2021/11/20 05:47:14;;;;;;;;;;;10.20;99.90;;;;;;5063459;28;19924;-77
2021/11/20 05:49:41;;;;;;;;;;;10.20;99.90;;;;;;5065057;28;20019;-79
2021/11/20 05:52:08;;;;;;;;;;;10.20;99.90;;;;;;5063005;28;20022;-76
2021/11/20 05:54:35;;;;;;;;;;;10.20;99.90;;;;;;5065250;28;22520;-80
2021/11/20 05:57:03;;;;;;;;;;;10.20;99.90;;;;;;5065957;28;19932;-77
2021/11/20 05:59:30;;;;;;;;;;;10.20;99.90;;;;;;5063500;28;19924;-76
2021/11/20 06:01:57;;;;;;;;;;;10.20;99.90;;;;;;5063273;28;20397;-78
2021/11/20 06:04:26;;;;;;;;;;;10.20;99.90;;;;;;5067033;28;20018;-77
2021/11/20 06:06:53;;;;;;;;;;;10.20;99.90;;;;;;5066261;28;19928;-78
2021/11/20 06:09:19;;;;;;;;;;;10.20;99.90;;;;;;5063148;28;19935;-77
2021/11/20 06:11:46;;;;;;;;;;;10.20;99.90;;;;;;5063030;28;19935;-77
2021/11/20 06:14:14;;;;;;;;;;;10.20;99.90;;;;;;5065285;28;20015;-77
2021/11/20 06:16:41;;;;;;;;;;;10.20;99.90;;;;;;5063850;28;19932;-78
2021/11/20 06:19:09;;;;;;;;;;;10.20;99.90;;;;;;5066925;28;19931;-77
2021/11/20 06:21:36;;;;;;;;;;;10.20;99.90;;;;;;5066921;28;20332;-76
2021/11/20 06:24:03;;;;;;;;;;;10.20;99.90;;;;;;5062145;28;20429;-76
2021/11/20 06:26:29;;;;;;;;;;;10.20;99.90;;;;;;5065740;28;19932;-78
2021/11/20 06:28:56;;;;;;;;;;;10.10;99.90;;;;;;5065266;28;19932;-78
2021/11/20 06:31:25;;;;;;;;;;;10.20;99.90;;;;;;5065182;28;19925;-76
2021/11/20 06:33:51;;;;;;;;;;;10.20;99.90;;;;;;5061946;28;19931;-77
2021/11/20 06:36:18;;;;;;;;;;;10.20;99.90;;;;;;5063259;28;19925;-76
2021/11/20 06:38:45;;;;;;;;;;;10.10;99.90;;;;;;5064996;28;19924;-77
2021/11/20 06:41:12;;;;;;;;;;;10.10;99.90;;;;;;5067044;28;19924;-77
2021/11/20 06:43:39;;;;;;;;;;;10.10;99.90;;;;;;5062975;28;19947;-78
2021/11/20 06:46:07;;;;;;;;;;;10.10;99.90;;;;;;5065665;28;19989;-78
2021/11/20 06:48:35;;;;;;;;;;;10.10;99.90;;;;;;5065195;28;19996;-77
2021/11/20 06:51:03;;;;;;;;;;;10.10;99.90;;;;;;5064248;28;19929;-76
2021/11/20 06:53:30;;;;;;;;;;;10.10;99.90;;;;;;5063780;28;19971;-77
2021/11/20 06:55:57;;;;;;;;;;;10.20;99.90;;;;;;5062085;28;20011;-77
2021/11/20 06:58:53;;;;;;;;;;;10.20;99.90;;;;;;5065189;28;19932;-76
2021/11/20 07:01:21;;;;;;;;;;;10.10;99.90;;;;;;5063205;28;20260;-78
2021/11/20 07:03:50;;;;;;;;;;;10.10;99.90;;;;;;5067032;28;20330;-77
2021/11/20 07:06:19;;;;;;;;;;;10.10;99.90;;;;;;5061723;28;19931;-76
2021/11/20 07:08:46;;;;;;;;;;;10.10;99.90;;;;;;5065629;28;19924;-78
2021/11/20 07:11:13;;;;;;;;;;;10.10;99.90;;;;;;5067382;28;19924;-77
2021/11/20 07:13:40;;;;;;;;;;;10.10;99.90;;;;;;5068162;28;20019;-78
2021/11/20 07:16:08;;;;;;;;;;;10.20;99.90;;;;;;5064194;28;19947;-77
2021/11/20 07:18:35;;;;;;;;;;;10.10;99.90;;;;;;5068947;28;19924;-77
2021/11/20 07:21:04;;;;;;;;;;;10.10;99.90;;;;;;5059973;28;20071;-80
2021/11/20 07:23:30;;;;;;;;;;;10.10;99.90;;;;;;5068130;28;20069;-78
2021/11/20 07:25:57;;;;;;;;;;;10.10;99.90;;;;;;5070443;28;20011;-76
2021/11/20 07:28:24;;;;;;;;;;;10.10;99.90;;;;;;5063268;28;19924;-77
2021/11/20 07:30:51;;;;;;;;;;;10.10;99.90;;;;;;5064514;28;20268;-76
2021/11/20 07:33:17;;;;;;;;;;;10.00;99.90;;;;;;5067282;28;20386;-77
2021/11/20 07:35:45;;;;;;;;;;;10.10;99.90;;;;;;5068228;28;19978;-77
2021/11/20 07:38:15;;;;;;;;;;;10.10;99.90;;;;;;5069049;28;19924;-75
2021/11/20 07:40:43;;;;;;;;;;;10.00;99.90;;;;;;5060496;28;19924;-77
2021/11/20 07:43:11;;;;;;;;;;;10.10;99.90;;;;;;5063445;28;19936;-76
2021/11/20 07:45:38;;;;;;;;;;;10.10;99.90;;;;;;5067884;28;20254;-75
2021/11/20 07:48:06;;;;;;;;;;;10.10;99.90;;;;;;5064182;28;19933;-75
2021/11/20 07:50:33;;;;;;;;;;;10.10;99.90;;;;;;5061076;28;19925;-76
2021/11/20 07:52:59;;;;;;;;;;;10.20;99.90;;;;;;5064314;28;19924;-75
2021/11/20 07:55:28;;;;;;;;;;;10.20;99.90;;;;;;5072453;28;19936;-77
2021/11/20 07:57:54;;;;;;;;;;;10.20;99.90;;;;;;5066991;28;19932;-75
2021/11/20 08:00:22;;;;;;;;;;;10.20;99.90;;;;;;5062699;28;20074;-77
2021/11/20 08:02:48;;;;;;;;;;;10.20;99.90;;;;;;5063308;28;20030;-79
2021/11/20 08:05:15;;;;;;;;;;;10.20;99.90;;;;;;5059784;28;20372;-77
2021/11/20 08:07:42;;;;;;;;;;;10.20;99.90;;;;;;5062863;28;20391;-81
2021/11/20 08:10:10;;;;;;;;;;;10.30;99.90;;;;;;5058075;28;19932;-79
2021/11/20 08:12:38;;;;;;;;;;;10.30;99.90;;;;;;5063706;28;19932;-82
2021/11/20 08:15:05;;;;;;;;;;;10.30;99.90;;;;;;5062211;28;19931;-75
2021/11/20 08:17:32;;;;;;;;;;;10.30;99.90;;;;;;5063735;28;19928;-76
2021/11/20 08:19:59;;;;;;;;;;;10.30;99.90;;;;;;5060926;28;20019;-74
2021/11/20 08:22:26;;;;;;;;;;;10.30;99.90;;;;;;5059849;28;19933;-74
2021/11/20 08:24:52;;;;;;;;;;;10.40;99.90;;;;;;5060602;28;19925;-75
2021/11/20 08:27:19;;;;;;;;;;;10.40;99.90;;;;;;5060323;28;19931;-74
2021/11/20 08:29:47;;;;;;;;;;;10.40;99.90;;;;;;5061269;28;20020;-77
2021/11/20 08:32:14;;;;;;;;;;;10.40;99.90;;;;;;5060626;28;20383;-74
2021/11/20 08:34:42;;;;;;;;;;;10.50;99.90;;;;;;5063035;28;19939;-74
2021/11/20 08:37:09;;;;;;;;;;;10.40;99.90;;;;;;5061606;28;20359;-74
2021/11/20 08:39:36;;;;;;;;;;;10.40;99.90;;;;;;5063162;28;19928;-74
2021/11/20 08:42:03;;;;;;;;;;;10.40;99.90;;;;;;5059703;28;20023;-74
2021/11/20 08:44:30;;;;;;;;;;;10.40;99.90;;;;;;5060291;28;19931;-74
2021/11/20 08:46:59;;;;;;;;;;;10.40;99.90;;;;;;5061213;28;19925;-75
2021/11/20 08:49:25;;;;;;;;;;;10.50;99.90;;;;;;5059440;28;19960;-74
2021/11/20 08:51:53;;;;;;;;;;;10.50;99.90;;;;;;5062568;28;20466;-73
2021/11/20 08:54:20;;;;;;;;;;;10.50;99.90;;;;;;5059056;28;19925;-75
2021/11/20 08:56:48;;;;;;;;;;;10.50;99.90;;;;;;5059957;28;19960;-76
2021/11/20 08:59:15;;;;;;;;;;;10.50;99.90;;;;;;5059733;28;20015;-80
2021/11/20 09:01:44;;;;;;;;;;;10.50;99.90;;;;;;5059717;28;19925;-77
2021/11/20 09:04:14;;;;;;;;;;;10.50;99.90;;;;;;5061140;28;20439;-78
2021/11/20 09:06:44;;;;;;;;;;;10.50;99.90;;;;;;5063116;28;19932;-78
2021/11/20 09:09:12;;;;;;;;;;;10.50;99.90;;;;;;5058880;28;19934;-76
2021/11/20 09:11:41;;;;;;;;;;;10.50;99.90;;;;;;5060400;28;19932;-76
2021/11/20 09:14:10;;;;;;;;;;;10.50;99.90;;;;;;5058999;28;19943;-79
2021/11/20 09:16:38;;;;;;;;;;;10.50;99.90;;;;;;5062092;28;19924;-78
2021/11/20 09:19:06;;;;;;;;;;;10.50;99.90;;;;;;5061181;28;19925;-79
2021/11/20 09:21:35;;;;;;;;;;;10.50;99.90;;;;;;5072663;28;20379;-78
2021/11/20 09:24:02;;;;;;;;;;;10.60;99.90;;;;;;5072876;28;19928;-77
2021/11/20 09:26:29;;;;;;;;;;;10.70;99.90;;;;;;5067134;28;20069;-78
2021/11/20 09:28:56;;;;;;;;;;;10.70;99.90;;;;;;5061522;28;20008;-78
2021/11/20 09:31:23;;;;;;;;;;;10.70;99.90;;;;;;5057421;28;19939;-75
2021/11/20 09:33:50;;;;;;;;;;;10.70;99.90;;;;;;5061162;28;19933;-78
2021/11/20 09:36:16;;;;;;;;;;;10.70;99.90;;;;;;5060441;28;19924;-77
2021/11/20 09:38:45;;;;;;;;;;;10.60;99.90;;;;;;5062104;28;19968;-77
2021/11/20 09:41:14;;;;;;;;;;;10.60;99.90;;;;;;5067264;28;19967;-75
2021/11/20 09:43:42;;;;;;;;;;;10.60;99.90;;;;;;5067045;28;19931;-78
2021/11/20 09:46:12;;;;;;;;;;;10.70;99.90;;;;;;5067307;28;20525;-79
2021/11/20 09:48:39;;;;;;;;;;;10.60;99.90;;;;;;5058784;28;22329;-81
2021/11/20 09:51:10;;;;;;;;;;;10.60;99.90;;;;;;5066832;28;20023;-81
2021/11/20 09:53:37;;;;;;;;;;;10.60;99.90;;;;;;5050326;28;20031;-85
2021/11/20 09:56:07;;;;;;;;;;;10.60;99.90;;;;;;5065046;28;19932;-84
2021/11/20 09:58:35;;;;;;;;;;;10.70;99.90;;;;;;5064269;28;19976;-80
2021/11/20 10:01:05;;;;;;;;;;;10.70;99.90;;;;;;5060693;28;19931;-77
2021/11/20 10:03:35;;;;;;;;;;;10.60;99.90;;;;;;5060851;28;19938;-77
2021/11/20 10:06:03;;;;;;;;;;;10.60;99.90;;;;;;5060716;28;20006;-76
2021/11/20 10:08:31;;;;;;;;;;;10.60;99.90;;;;;;5059186;28;19943;-78
2021/11/20 10:11:00;;;;;;;;;;;10.50;99.90;;;;;;5064147;28;19932;-77
2021/11/20 10:13:30;;;;;;;;;;;10.60;99.90;;;;;;5058678;28;19931;-76
2021/11/20 10:16:00;;;;;;;;;;;10.60;99.90;;;;;;5063962;28;19936;-77
2021/11/20 10:18:29;;;;;;;;;;;10.60;99.90;;;;;;5061776;28;19976;-76
2021/11/20 10:20:57;;;;;;;;;;;10.60;99.90;;;;;;5058857;28;19940;-77
2021/11/20 10:23:30;;;;;;;;;;;10.50;99.90;;;;;;5058313;28;19933;-75
2021/11/20 10:26:13;;;;;;;;;;;10.50;99.90;;;;;;5059601;28;20442;-75
2021/11/20 10:28:46;;;;;;;;;;;10.50;99.90;;;;;;5059738;28;19929;-75
2021/11/20 10:31:15;;;;;;;;;;;10.50;99.90;;;;;;5063237;28;20323;-80
2021/11/20 10:33:43;;;;;;;;;;;10.50;99.90;;;;;;5062181;28;20410;-82
2021/11/20 10:36:13;;;;;;;;;;;10.50;99.90;;;;;;5057526;28;19983;-77
2021/11/20 10:38:42;;;;;;;;;;;10.60;99.90;;;;;;5061022;28;20019;-75
2021/11/20 10:41:14;;;;;;;;;;;10.50;99.90;;;;;;5060509;28;19924;-77
2021/11/20 10:43:43;;;;;;;;;;;10.50;99.90;;;;;;5062158;28;19932;-80
2021/11/20 10:46:18;;;;;;;;;;;10.50;99.90;;;;;;5065198;28;19925;-78
2021/11/20 10:48:49;;;;;;;;;;;10.50;99.90;;;;;;5061350;28;19932;-76
2021/11/20 10:51:33;;;;;;;;;;;10.50;99.90;;;;;;5062208;28;20363;-80
2021/11/20 10:54:17;;;;;;;;;;;10.50;99.90;;;;;;5062671;28;20383;-77
2021/11/20 10:56:48;;;;;;;;;;;10.50;99.90;;;;;;5065715;28;19924;-77
2021/11/20 10:59:24;;;;;;;;;;;10.50;99.90;;;;;;5065491;28;19943;-76
2021/11/20 11:01:59;;;;;;;;;;;10.50;99.90;;;;;;5065132;28;19932;-76
2021/11/20 11:04:35;;;;;;;;;;;10.40;99.90;;;;;;5064754;28;20046;-76
2021/11/20 11:07:03;;;;;;;;;;;10.40;99.90;;;;;;5067050;28;19938;-77
2021/11/20 11:09:44;;;;;;;;;;;10.30;99.90;;;;;;5064234;28;19924;-76
2021/11/20 11:12:16;;;;;;;;;;;10.30;99.90;;;;;;5063393;28;20033;-76
2021/11/20 11:15:00;;;;;;;;;;;10.30;99.90;;;;;;5062786;28;20031;-73
2021/11/20 11:17:45;;;;;;;;;;;10.30;99.90;;;;;;5063462;28;19928;-73
2021/11/20 11:20:15;;;;;;;;;;;10.30;99.90;;;;;;5022510;28;19932;-76
2021/11/20 11:22:54;;;;;;;;;;;10.30;99.90;;;;;;5061543;28;19952;-73
2021/11/20 11:25:23;;;;;;;;;;;10.40;99.90;;;;;;5072620;28;19952;-73
2021/11/20 11:28:14;;;;;;;;;;;10.30;99.90;;;;;;5069798;28;20434;-74
2021/11/20 11:30:46;;;;;;;;;;;10.20;99.90;;;;;;5064680;28;20323;-75
2021/11/20 11:33:13;;;;;;;;;;;10.10;99.90;;;;;;5071237;28;19935;-77
2021/11/20 11:35:43;;;;;;;;;;;10.10;99.90;;;;;;5065595;28;20031;-76
2021/11/20 11:38:17;;;;;;;;;;;10.00;99.90;;;;;;5067651;28;19986;-79
2021/11/20 11:40:46;;;;;;;;;;;10.00;99.90;;;;;;5061593;28;19983;-76
2021/11/20 11:43:15;;;;;;;;;;;10.00;99.90;;;;;;5068183;28;20011;-77
2021/11/20 11:45:57;;;;;;;;;;;10.00;99.90;;;;;;5068510;28;19925;-75
2021/11/20 11:48:26;;;;;;;;;;;10.00;99.90;;;;;;5066311;28;20023;-77
2021/11/20 11:51:05;;;;;;;;;;;10.00;99.90;;;;;;5064488;28;19928;-76
2021/11/20 11:53:36;;;;;;;;;;;10.00;99.90;;;;;;5068287;28;20019;-75
2021/11/20 11:56:09;;;;;;;;;;;10.00;99.90;;;;;;5068254;28;20391;-77
2021/11/20 11:58:51;;;;;;;;;;;10.00;99.90;;;;;;5066452;28;19935;-75
2021/11/20 12:01:19;;;;;;;;;;;10.00;99.90;;;;;;5064167;28;19933;-75
2021/11/20 12:03:47;;;;;;;;;;;10.10;99.90;;;;;;5062736;28;21637;-74
2021/11/20 12:06:17;;;;;;;;;;;10.00;99.90;;;;;;5068776;28;20009;-74
2021/11/20 12:08:46;;;;;;;;;;;10.10;99.90;;;;;;5064251;28;19928;-74
2021/11/20 12:11:15;;;;;;;;;;;10.10;99.90;;;;;;5065345;28;20035;-76
2021/11/20 12:13:45;;;;;;;;;;;10.00;99.90;;;;;;5068766;28;19946;-75
2021/11/20 12:16:29;;;;;;;;;;;9.90;99.90;;;;;;5066292;28;20000;-74
2021/11/20 12:19:00;;;;;;;;;;;9.90;99.90;;;;;;5062837;28;20381;-75
2021/11/20 12:21:34;;;;;;;;;;;9.90;99.90;;;;;;5067827;28;20023;-75
2021/11/20 12:24:08;;;;;;;;;;;9.90;99.90;;;;;;5065440;28;20581;-75
2021/11/20 12:26:37;;;;;;;;;;;9.90;99.90;;;;;;5067797;28;19928;-74
2021/11/20 12:29:19;;;;;;;;;;;9.80;99.90;;;;;;5064657;28;20023;-74
2021/11/20 12:31:57;;;;;;;;;;;9.80;99.90;;;;;;5063986;28;19968;-73
2021/11/20 12:34:29;;;;;;;;;;;9.80;99.90;;;;;;5064505;28;19933;-73
2021/11/20 12:37:15;;;;;;;;;;;9.80;99.90;;;;;;5070289;28;19932;-76
2021/11/20 12:39:55;;;;;;;;;;;9.90;99.90;;;;;;5063597;28;19924;-75
2021/11/20 12:42:33;;;;;;;;;;;9.90;99.90;;;;;;5062774;28;19925;-75
2021/11/20 12:45:06;;;;;;;;;;;9.90;99.90;;;;;;5068322;28;19924;-74
2021/11/20 12:47:41;;;;;;;;;;;9.80;99.90;;;;;;5069432;28;19936;-74
2021/11/20 12:50:10;;;;;;;;;;;9.80;99.90;;;;;;5066746;28;22707;-75
2021/11/20 12:52:39;;;;;;;;;;;9.70;99.90;;;;;;5066283;28;19983;-74
2021/11/20 12:55:24;;;;;;;;;;;9.70;99.90;;;;;;5066319;28;20400;-76
2021/11/20 12:57:53;;;;;;;;;;;9.80;99.90;;;;;;5067332;28;19924;-75
2021/11/20 13:00:22;;;;;;;;;;;9.70;99.90;;;;;;5066959;28;19924;-73
2021/11/20 13:02:53;;;;;;;;;;;9.70;99.90;;;;;;5063120;28;20372;-72
2021/11/20 13:05:23;;;;;;;;;;;9.80;99.90;;;;;;5063980;28;19934;-73
2021/11/20 13:07:52;;;;;;;;;;;9.80;99.90;;;;;;5061102;28;19932;-74
2021/11/20 13:10:21;;;;;;;;;;;9.80;99.90;;;;;;5066511;28;19924;-73
2021/11/20 13:12:49;;;;;;;;;;;9.80;99.90;;;;;;5064669;28;19939;-75
2021/11/20 13:15:22;;;;;;;;;;;9.70;99.90;;;;;;5065928;28;19943;-73
2021/11/20 13:17:55;;;;;;;;;;;9.70;99.90;;;;;;5062592;28;19975;-75
2021/11/20 13:20:23;;;;;;;;;;;9.60;99.90;;;;;;5062470;28;20357;-76
2021/11/20 13:23:02;;;;;;;;;;;9.70;99.90;;;;;;5066707;28;20412;-76
2021/11/20 13:25:29;;;;;;;;;;;9.70;99.90;;;;;;5067337;28;19935;-75
2021/11/20 13:27:58;;;;;;;;;;;9.70;99.90;;;;;;5065151;28;19931;-75
2021/11/20 13:30:27;;;;;;;;;;;9.70;99.90;;;;;;5063650;28;19934;-74
2021/11/20 13:32:56;;;;;;;;;;;9.80;99.90;;;;;;5065425;28;20334;-73
2021/11/20 13:35:24;;;;;;;;;;;9.80;99.90;;;;;;5065029;28;19932;-74
2021/11/20 13:37:52;;;;;;;;;;;9.80;99.90;;;;;;5065504;28;19998;-74
2021/11/20 13:40:22;;;;;;;;;;;9.80;99.90;;;;;;5066306;28;19928;-74
2021/11/20 13:42:49;;;;;;;;;;;9.80;99.90;;;;;;5062224;28;20272;-75
2021/11/20 13:45:17;;;;;;;;;;;9.90;99.90;;;;;;5064574;28;19929;-75
2021/11/20 13:47:45;;;;;;;;;;;9.90;99.90;;;;;;5059309;28;19932;-74
2021/11/20 13:50:12;;;;;;;;;;;9.90;99.90;;;;;;5064595;28;19998;-73
2021/11/20 13:52:38;;;;;;;;;;;9.90;99.90;;;;;;5063548;28;19939;-74
2021/11/20 13:55:06;;;;;;;;;;;9.80;99.90;;;;;;5062700;28;19942;-76
2021/11/20 13:57:36;;;;;;;;;;;9.80;99.90;;;;;;5067843;28;19924;-75
2021/11/20 14:00:05;;;;;;;;;;;9.80;99.90;;;;;;5067431;28;19928;-73
2021/11/20 14:02:33;;;;;;;;;;;9.80;99.90;;;;;;5065356;28;20022;-74
2021/11/20 14:05:02;;;;;;;;;;;9.70;99.90;;;;;;5067949;28;19925;-76
2021/11/20 14:07:34;;;;;;;;;;;9.60;99.90;;;;;;5064110;28;20371;-73
2021/11/20 14:10:02;;;;;;;;;;;9.60;99.90;;;;;;5062034;28;19931;-71
2021/11/20 14:12:37;;;;;;;;;;;9.60;99.90;;;;;;5064851;28;20016;-72
2021/11/20 14:15:05;;;;;;;;;;;9.60;99.90;;;;;;5058797;28;19925;-73
2021/11/20 14:17:35;;;;;;;;;;;9.60;99.90;;;;;;5063377;28;19932;-72
2021/11/20 14:20:05;;;;;;;;;;;9.70;99.90;;;;;;5061314;28;19928;-73
2021/11/20 14:22:36;;;;;;;;;;;9.70;99.90;;;;;;5061804;28;19928;-72
2021/11/20 14:25:03;;;;;;;;;;;9.60;99.90;;;;;;5063866;28;20689;-72
2021/11/20 14:27:32;;;;;;;;;;;9.60;99.90;;;;;;5068563;28;19931;-73
2021/11/20 14:29:58;;;;;;;;;;;9.60;99.90;;;;;;5064349;28;19928;-75